Time;durP1;ratioP1;P1;durP2;ratioP2;P2;SDS_P1;SDS_P2;PMS_P1;PMS_P2;Temp;Humidity;BMP_temperature;BMP_pressure;BME280_temperature;BME280_humidity;BME280_pressure;Samples;Min_cycle;Max_cycle;Signal;HPM_P1;HPM_P2
2022/10/17 00:02:01;;;;;;;6.87;4.97;;;;;;;22.91;54.54;101595.78;20640490;28;20054;-71
2022/10/17 00:12:02;;;;;;;5.30;4.10;;;;;;;22.90;54.41;101593.22;20638774;28;20105;-71
2022/10/17 00:22:02;;;;;;;5.20;4.30;;;;;;;22.90;54.38;101598.50;20633224;28;20461;-71
2022/10/17 00:32:03;;;;;;;8.35;4.32;;;;;;;22.88;54.44;101603.06;20655187;28;20042;-72
2022/10/17 00:42:03;;;;;;;6.18;4.40;;;;;;;22.85;54.37;101602.31;20651517;28;20085;-71
2022/10/17 00:52:32;;;;;;;6.63;5.22;;;;;;;22.86;54.20;101593.44;20642079;28;20035;-70
2022/10/17 01:02:33;;;;;;;7.20;4.45;;;;;;;22.83;54.26;101590.16;20643311;28;20060;-71
2022/10/17 01:13:10;;;;;;;6.43;4.47;;;;;;;22.81;54.37;101592.91;20643289;28;20914;-71
2022/10/17 01:23:27;;;;;;;6.13;4.50;;;;;;;22.82;54.30;101593.75;20644327;28;20057;-71
2022/10/17 01:33:41;;;;;;;4.95;4.38;;;;;;;22.80;54.14;101591.22;20644291;28;20074;-71
2022/10/17 01:43:57;;;;;;;5.97;4.25;;;;;;;22.79;54.22;101588.66;20656247;28;20570;-71
2022/10/17 01:54:05;;;;;;;5.60;4.50;;;;;;;22.75;54.14;101595.91;20639861;28;20046;-72
2022/10/17 02:04:07;;;;;;;8.02;4.70;;;;;;;22.73;54.38;101605.75;20650104;28;20546;-72
2022/10/17 02:14:20;;;;;;;7.00;4.43;;;;;;;22.71;54.40;101605.81;20646822;28;20604;-71
2022/10/17 02:24:35;;;;;;;5.97;4.22;;;;;;;22.70;54.66;101609.44;20645194;28;20048;-71
2022/10/17 02:34:43;;;;;;;4.68;4.10;;;;;;;22.71;54.38;101618.19;20649767;28;20073;-71
2022/10/17 02:44:45;;;;;;;5.75;4.18;;;;;;;22.70;54.14;101622.66;20645497;28;20046;-71
2022/10/17 02:54:59;;;;;;;6.43;4.77;;;;;;;22.68;54.38;101626.34;20642122;28;20045;-71
2022/10/17 03:05:00;;;;;;;8.75;4.75;;;;;;;22.66;54.52;101630.84;20634901;28;20394;-71
2022/10/17 03:15:01;;;;;;;6.10;4.97;;;;;;;22.64;54.05;101633.59;20646482;28;20049;-71
2022/10/17 03:25:01;;;;;;;5.95;4.55;;;;;;;22.62;54.30;101650.44;20642186;28;20536;-71
2022/10/17 03:35:02;;;;;;;5.68;4.47;;;;;;;22.60;54.11;101652.38;20643658;28;20910;-72
2022/10/17 03:45:03;;;;;;;8.52;5.10;;;;;;;22.60;54.36;101665.56;20638513;28;20065;-71
2022/10/17 03:55:03;;;;;;;5.72;4.43;;;;;;;22.62;54.48;101679.50;20638171;28;20563;-71
2022/10/17 04:05:04;;;;;;;6.90;4.43;;;;;;;22.62;55.03;101680.34;20644555;28;20050;-72
2022/10/17 04:15:05;;;;;;;5.20;4.45;;;;;;;22.66;55.39;101694.22;20661838;28;20053;-72
2022/10/17 04:25:06;;;;;;;5.85;4.45;;;;;;;22.68;56.31;101697.63;20649941;28;20041;-70
2022/10/17 04:35:07;;;;;;;41.08;9.35;;;;;;;22.71;56.81;101703.53;20659819;28;20064;-72
2022/10/17 04:45:07;;;;;;;46.08;11.32;;;;;;;22.73;56.72;101711.38;20691008;28;20057;-73
2022/10/17 04:55:08;;;;;;;58.95;12.10;;;;;;;22.72;56.58;101712.31;20679626;28;20042;-72
2022/10/17 05:05:08;;;;;;;50.60;12.85;;;;;;;22.74;56.13;101730.69;20648242;28;20053;-71
2022/10/17 05:15:09;;;;;;;40.55;12.15;;;;;;;22.64;55.26;101727.78;20671779;28;20042;-75
2022/10/17 05:25:09;;;;;;;35.13;11.75;;;;;;;22.61;55.30;101747.31;20659524;28;20073;-74
2022/10/17 05:35:10;;;;;;;37.08;12.10;;;;;;;22.61;55.40;101764.94;20660857;28;20042;-75
2022/10/17 05:45:10;;;;;;;30.40;10.90;;;;;;;22.57;53.95;101772.22;20660414;28;20457;-74
2022/10/17 05:55:10;;;;;;;27.08;10.50;;;;;;;22.57;55.38;101789.81;20641912;28;20037;-73
2022/10/17 06:05:11;;;;;;;26.13;9.85;;;;;;;22.57;55.54;101795.97;20645340;28;20057;-73
2022/10/17 06:15:12;;;;;;;29.33;10.25;;;;;;;22.58;55.63;101815.28;20656679;28;20110;-74
2022/10/17 06:25:13;;;;;;;23.95;9.63;;;;;;;22.58;55.58;101826.69;20652413;28;20825;-73
2022/10/17 06:35:14;;;;;;;23.42;9.32;;;;;;;22.58;55.48;101834.59;20663657;28;20473;-73
2022/10/17 06:45:14;;;;;;;20.23;9.07;;;;;;;22.59;55.29;101844.22;20651537;28;20050;-73
2022/10/17 06:55:15;;;;;;;23.20;8.93;;;;;;;22.58;55.27;101852.25;20663488;28;20534;-74
2022/10/17 07:05:16;;;;;;;21.50;8.57;;;;;;;22.59;55.27;101862.69;20673256;28;20049;-74
2022/10/17 07:15:16;;;;;;;16.38;8.40;;;;;;;22.59;55.13;101877.69;20672506;28;20116;-74
2022/10/17 07:25:17;;;;;;;18.77;8.85;;;;;;;22.59;54.97;101870.63;20674930;28;20531;-72
2022/10/17 07:35:17;;;;;;;20.13;8.38;;;;;;;22.62;55.15;101874.84;20678345;28;20053;-71
2022/10/17 07:45:17;;;;;;;24.90;8.55;;;;;;;22.63;55.52;101881.84;20658797;28;21690;-71
2022/10/17 07:55:18;;;;;;;18.40;7.80;;;;;;;22.63;55.40;101885.34;20663587;28;20077;-71
2022/10/17 08:05:18;;;;;;;22.80;7.57;;;;;;;22.63;55.48;101887.13;20662540;28;20057;-72
2022/10/17 08:15:19;;;;;;;19.33;8.18;;;;;;;22.66;55.20;101902.78;20669879;28;20065;-71
2022/10/17 08:25:20;;;;;;;15.05;7.47;;;;;;;22.69;55.32;101905.25;20662078;28;20046;-71
2022/10/17 08:35:21;;;;;;;14.32;7.30;;;;;;;22.70;55.47;101899.88;20656852;28;20042;-71
2022/10/17 08:45:33;;;;;;;13.90;7.37;;;;;;;22.71;55.53;101898.91;20664553;28;20050;-71
2022/10/17 08:55:39;;;;;;;19.00;10.10;;;;;;;22.45;44.55;101902.25;20665610;28;20279;-73
2022/10/17 09:05:48;;;;;;;19.90;9.73;;;;;;;22.35;44.25;101901.91;20677833;28;20046;-74
2022/10/17 09:16:14;;;;;;;14.10;7.68;;;;;;;22.46;46.33;101901.31;20675032;28;20536;-74
2022/10/17 09:26:15;;;;;;;13.38;7.15;;;;;;;22.53;47.08;101898.25;20675065;28;20054;-74
2022/10/17 09:36:19;;;;;;;11.23;6.45;;;;;;;22.61;49.04;101895.16;20658024;28;20049;-74
2022/10/17 09:46:29;;;;;;;11.13;6.18;;;;;;;22.66;48.51;101894.88;20651370;28;20493;-74
2022/10/17 09:56:30;;;;;;;10.32;6.07;;;;;;;22.71;49.35;101887.53;20651283;28;20046;-74
2022/10/17 10:06:30;;;;;;;12.27;5.10;;;;;;;22.81;49.52;101879.88;20671189;28;20125;-75
2022/10/17 10:16:32;;;;;;;7.45;5.43;;;;;;;22.88;49.70;101878.56;20678442;28;20046;-73
2022/10/17 10:26:44;;;;;;;11.68;5.75;;;;;;;22.96;49.72;101876.31;20673600;28;20532;-73
2022/10/17 10:37:16;;;;;;;9.45;5.25;;;;;;;23.02;49.74;101868.00;20698107;28;20046;-73
2022/10/17 10:47:20;;;;;;;8.93;4.95;;;;;;;23.06;48.97;101868.69;20741581;28;20054;-73
2022/10/17 10:57:26;;;;;;;7.75;4.50;;;;;;;23.09;48.22;101852.63;20704502;28;20045;-74
2022/10/17 11:07:58;;;;;;;10.00;5.78;;;;;;;23.22;48.69;101858.03;20666413;28;20050;-74
2022/10/17 11:18:01;;;;;;;9.70;6.50;;;;;;;23.36;52.33;101857.13;20656187;28;20053;-73
2022/10/17 11:28:09;;;;;;;8.48;6.10;;;;;;;23.47;51.48;101843.22;20661456;28;20077;-74
2022/10/17 11:38:48;;;;;;;6.65;5.03;;;;;;;23.55;50.29;101832.19;20660689;28;20037;-74
2022/10/17 11:49:13;;;;;;;6.70;4.45;;;;;;;23.63;49.83;101827.22;20530128;28;20053;-73
2022/10/17 11:59:45;;;;;;;10.98;3.80;;;;;;;23.71;49.10;101816.16;20687059;28;20462;-74
2022/10/17 12:10:06;;;;;;;7.72;3.90;;;;;;;23.79;48.83;101812.06;20672922;28;20034;-75
2022/10/17 12:20:24;;;;;;;7.95;4.05;;;;;;;23.85;48.71;101805.50;20672322;28;20113;-74
2022/10/17 12:30:26;;;;;;;7.18;3.63;;;;;;;23.92;48.04;101795.38;20689033;28;20042;-73
2022/10/17 12:40:36;;;;;;;6.93;3.40;;;;;;;23.94;46.79;101785.56;20658707;28;20149;-72
2022/10/17 12:51:01;;;;;;;6.75;3.80;;;;;;;23.94;47.28;101788.22;20677661;28;20300;-72
2022/10/17 13:01:04;;;;;;;4.30;3.40;;;;;;;23.96;47.34;101781.88;20671412;28;20177;-72
2022/10/17 13:11:06;;;;;;;4.78;3.60;;;;;;;23.98;47.35;101777.28;20710148;28;20076;-72
2022/10/17 13:21:15;;;;;;;5.22;3.40;;;;;;;23.97;47.47;101772.13;20709534;28;20555;-72
2022/10/17 13:31:30;;;;;;;4.03;3.13;;;;;;;23.95;47.31;101769.59;20705153;28;20578;-72
2022/10/17 13:41:33;;;;;;;5.35;3.60;;;;;;;23.93;47.00;101763.53;20658742;28;20042;-74
2022/10/17 13:51:34;;;;;;;6.55;3.20;;;;;;;23.97;47.16;101753.59;20652123;28;20046;-74
2022/10/17 14:01:36;;;;;;;7.40;3.45;;;;;;;24.00;47.31;101757.84;20657317;28;20046;-74
2022/10/17 14:11:40;;;;;;;7.57;2.90;;;;;;;24.01;46.93;101754.25;20656931;28;20062;-74
2022/10/17 14:21:40;;;;;;;8.10;3.00;;;;;;;24.04;47.05;101754.88;20657135;28;20046;-74
2022/10/17 14:31:41;;;;;;;18.27;3.78;;;;;;;24.03;47.37;101739.94;20652211;28;20674;-73
2022/10/17 14:41:43;;;;;;;14.05;3.60;;;;;;;24.01;46.68;101744.53;20668296;28;20452;-74
2022/10/17 14:52:15;;;;;;;11.20;3.50;;;;;;;23.93;47.36;101746.84;20659242;28;20069;-74
2022/10/17 15:02:15;;;;;;;5.47;3.43;;;;;;;23.75;40.37;101738.31;20638004;28;20118;-72
2022/10/17 15:12:24;;;;;;;11.50;4.00;;;;;;;23.79;46.61;101745.06;20630633;28;20402;-74
2022/10/17 15:22:25;;;;;;;7.38;3.20;;;;;;;23.76;47.27;101747.94;20625776;28;20196;-74
2022/10/17 15:32:25;;;;;;;9.32;3.63;;;;;;;23.70;47.97;101751.84;20640887;28;20058;-80
2022/10/17 15:42:29;;;;;;;7.28;3.20;;;;;;;23.67;48.23;101765.28;20654280;28;20061;-75
2022/10/17 15:52:29;;;;;;;11.75;3.83;;;;;;;23.66;49.17;101772.34;20635893;28;21122;-75
2022/10/17 16:02:29;;;;;;;10.98;3.60;;;;;;;23.63;49.62;101776.97;20648612;28;20050;-75
2022/10/17 16:12:35;;;;;;;9.98;3.92;;;;;;;23.61;50.03;101778.91;20654757;28;20060;-75
2022/10/17 16:22:36;;;;;;;8.27;5.07;;;;;;;23.58;50.62;101793.19;20659701;28;20042;-74
2022/10/17 16:32:37;;;;;;;9.77;5.53;;;;;;;23.53;50.38;101797.06;20660128;28;20038;-76
2022/10/17 16:42:37;;;;;;;7.78;5.40;;;;;;;23.50;50.35;101793.66;20660825;28;20100;-75
2022/10/17 16:52:41;;;;;;;11.85;6.10;;;;;;;23.46;50.52;101809.81;20639188;28;20037;-75
2022/10/17 17:02:42;;;;;;;21.77;7.95;;;;;;;23.43;50.48;101808.22;20636406;28;20042;-76
2022/10/17 17:12:42;;;;;;;40.43;9.93;;;;;;;23.39;50.91;101812.03;20662165;28;21099;-76
2022/10/17 17:22:42;;;;;;;51.85;10.40;;;;;;;23.37;51.77;101823.66;20645995;28;20303;-77
2022/10/17 17:32:43;;;;;;;37.20;9.60;;;;;;;23.36;51.42;101821.94;20640609;28;20050;-74
2022/10/17 17:42:43;;;;;;;42.95;9.77;;;;;;;23.31;52.47;101820.44;20652692;28;20076;-75
2022/10/17 17:52:47;;;;;;;23.45;8.52;;;;;;;23.36;52.12;101811.38;20646026;28;20058;-75
2022/10/17 18:02:48;;;;;;;39.85;13.52;;;;;;;23.45;55.48;101818.72;20674058;28;20076;-76
2022/10/17 18:12:48;;;;;;;49.28;16.38;;;;;;;23.51;57.92;101818.31;20682575;28;20085;-76
2022/10/17 18:22:49;;;;;;;43.58;16.15;;;;;;;23.58;60.80;101816.97;20645219;28;21973;-77
2022/10/17 18:32:49;;;;;;;40.70;17.27;;;;;;;23.65;63.16;101823.53;20652185;28;20042;-78
2022/10/17 18:42:49;;;;;;;41.67;16.88;;;;;;;23.67;63.57;101816.34;20649689;28;20570;-75
2022/10/17 18:52:50;;;;;;;35.25;15.27;;;;;;;23.66;62.85;101822.59;20641033;28;20045;-75
2022/10/17 19:02:51;;;;;;;28.88;13.30;;;;;;;23.66;61.99;101822.59;20643981;28;20602;-75
2022/10/17 19:12:51;;;;;;;26.63;11.63;;;;;;;23.61;59.86;101816.75;20638721;28;20077;-76
2022/10/17 19:22:52;;;;;;;27.27;11.52;;;;;;;23.55;59.77;101813.69;20652341;28;20042;-75
2022/10/17 19:32:52;;;;;;;26.08;11.10;;;;;;;23.52;59.59;101821.78;20661693;28;20030;-77
2022/10/17 19:42:53;;;;;;;18.02;8.75;;;;;;;23.51;58.81;101818.31;20658534;28;20112;-76
2022/10/17 19:52:54;;;;;;;20.33;8.83;;;;;;;23.49;58.66;101812.28;20649734;28;20034;-76
2022/10/17 20:02:54;;;;;;;17.70;8.52;;;;;;;23.48;58.13;101815.84;20659696;28;20034;-75
2022/10/17 20:12:55;;;;;;;16.33;8.70;;;;;;;23.43;58.04;101826.72;20673831;28;20046;-75
2022/10/17 20:22:55;;;;;;;15.65;8.13;;;;;;;23.39;58.13;101822.59;20676980;28;20046;-76
2022/10/17 20:32:55;;;;;;;14.82;8.27;;;;;;;23.36;57.66;101819.28;20657371;28;20981;-76
2022/10/17 20:42:56;;;;;;;16.63;8.00;;;;;;;23.32;57.70;101823.94;20668818;28;20046;-76
2022/10/17 20:52:56;;;;;;;12.57;7.70;;;;;;;23.29;57.26;101824.97;20687252;28;20133;-76
2022/10/17 21:02:57;;;;;;;13.90;7.30;;;;;;;23.26;57.09;101822.50;20698062;28;20054;-77
2022/10/17 21:12:58;;;;;;;11.13;6.83;;;;;;;23.29;57.08;101821.47;20675741;28;20119;-76
2022/10/17 21:23:00;;;;;;;12.52;6.90;;;;;;;23.29;57.33;101826.75;20684263;28;20121;-76
2022/10/17 21:33:01;;;;;;;11.20;7.03;;;;;;;23.28;57.28;101822.44;20689604;28;20049;-75
2022/10/17 21:43:01;;;;;;;11.13;7.23;;;;;;;23.29;57.42;101817.03;20693120;28;20046;-76
2022/10/17 21:53:02;;;;;;;10.63;7.32;;;;;;;23.26;57.43;101819.03;20657897;28;20080;-76
2022/10/17 22:03:02;;;;;;;10.32;7.43;;;;;;;23.25;57.11;101818.16;20652779;28;20535;-77
2022/10/17 22:13:03;;;;;;;10.65;6.97;;;;;;;23.23;57.25;101801.59;20654202;28;20046;-77
2022/10/17 22:23:04;;;;;;;12.38;7.30;;;;;;;23.21;56.79;101803.47;20652626;28;20070;-77
2022/10/17 22:33:04;;;;;;;10.07;6.70;;;;;;;23.16;56.51;101800.25;20653199;28;20045;-76
2022/10/17 22:43:04;;;;;;;10.35;6.80;;;;;;;23.15;56.50;101795.91;20639463;28;20084;-76
2022/10/17 22:53:05;;;;;;;8.52;6.55;;;;;;;23.12;56.61;101802.22;20639829;28;20470;-76
2022/10/17 23:03:05;;;;;;;9.90;6.45;;;;;;;23.12;56.62;101799.59;20641717;28;20042;-76
2022/10/17 23:13:05;;;;;;;10.70;7.00;;;;;;;23.08;56.38;101786.66;20638337;28;20063;-76
2022/10/17 23:23:06;;;;;;;8.98;6.53;;;;;;;23.05;56.13;101777.16;20649641;28;20408;-74
2022/10/17 23:33:09;;;;;;;8.48;6.43;;;;;;;23.07;56.17;101769.13;20641373;28;20038;-76
2022/10/17 23:43:09;;;;;;;9.20;6.60;;;;;;;23.05;56.04;101765.75;20640811;28;20137;-76
2022/10/17 23:53:09;;;;;;;8.43;6.47;;;;;;;23.03;56.11;101757.91;20633850;28;20048;-75
